Pingree Grove, Illinois
Current Conditions -  °F | °C
As of 4:15 AM on Tuesday 27 Jan 2015 (Local Time) from KDKB Reporting Station
Haze Haze  
Wind Chill: 20°   Ceiling: 800
Heat Index: 25°   Visibility: 4mi
Dew Point: 24°   Wind: 5mph
Humidity: 94%   Direction: 10°N
Pressure: 29.98"   Gusts: NA
Location:  42.0764°N, 88.5255°W
Report Text: KDKB 271015Z AUTO 01004KT 4SM BR OVC008 M04/M04 A2998 RMK AO2 T10371045
Loading
Personal Weather Stations






























Interactive Weather Map New forecast layout! Learn more

10-Day Weather Forecast

Advertisements
Track Severe Weather on mobile